Aérodrome :
LOGIN :

S'inscrire | Disclaimer

   EN    FR    IT 

 










Légende :    VFR   VFR Marginal   IFR   IFR Intensif   IFR Très Intensif
Visi : 
Plafond : 
>= 8 km
>= 3000ft
5 à 8 km
1000 à 3000 ft
1500m à 5 km
500 à 1000 ft
800 à 1500m
200 à 500 ft
< 800m
< 200 ft
Symboles :   Orages  Brouillard  Fortes neiges  Fortes précipitations  Vent > 20 kt
SIGMETs :   Divers  Orages  Givrage  Turbulence  Onde Orograph.  Cendres Volcan.







- Altitude de l'aérodrome : 112 ft
- Code IATA : SVQ


LEZL - Sevilla San Pablo

DERNIER METAR :
  • 211100Z 02004KT 330V080 CAVOK 29/19 Q1019 NOSIG

METARs EXPIRÉS :
  • 211030Z 36002KT CAVOK 28/18 Q1019 NOSIG
  • 211000Z 36002KT CAVOK 28/19 Q1019 NOSIG
  • 210930Z 04001KT CAVOK 27/19 Q1019 NOSIG
  • 210900Z 05002KT CAVOK 26/19 Q1018 NOSIG
  • 210830Z 00000KT CAVOK 26/20 Q1018 NOSIG

TAF TAF LEZL
Valide du 21 à 09h jusqu'au 22 à 09h UTC


210800Z 2109/2209 VRB02KT CAVOK TX35/2115Z TN21/2206Z
Pas de NOTAMs connus pour ce terrain.



MET'MAP, la Météo Aéronautique d'un coup d'oeil ! - Copyright ORBIFLY Décembre 2007 - Disclaimer

ORBIFLY MET'MAP TEAM :

Programmation & Développement : Alexandra Zaïnal
Conception & Développement : Baudouin d'Aumeries
Co-Programmation & Développement : Marc-Olivier Méhu
Soutien technique & logistique : Manuel Goepfert

Contact : metmap@orbifly.com




SOURCES & CREDITS :

   NOAA